Time;durP1;ratioP1;P1;durP2;ratioP2;P2;SDS_P1;SDS_P2;PMS_P1;PMS_P2;Temp;Humidity;BMP_temperature;BMP_pressure;BME280_temperature;BME280_humidity;BME280_pressure;Samples;Min_cycle;Max_cycle;Signal;HPM_P1;HPM_P2
2023/01/02 00:02:22;;;;;;;15.18;8.55;;;;;;;;;;5039993;28;20041;-78
2023/01/02 00:04:48;;;;;;;15.82;8.98;;;;;;;;;;5054743;28;20041;-79
2023/01/02 00:07:14;;;;;;;17.45;9.30;;;;;;;;;;5057113;28;20040;-78
2023/01/02 00:09:40;;;;;;;15.52;8.85;;;;;;;;;;5070931;28;20036;-77
2023/01/02 00:12:06;;;;;;;15.48;8.93;;;;;;;;;;5053940;28;20072;-77
2023/01/02 00:14:32;;;;;;;17.10;9.52;;;;;;;;;;5071048;28;20101;-78
2023/01/02 00:16:58;;;;;;;19.15;9.43;;;;;;;;;;5071287;28;20041;-78
2023/01/02 00:19:24;;;;;;;18.35;10.18;;;;;;;;;;5070764;28;20046;-77
2023/01/02 00:21:50;;;;;;;19.98;9.70;;;;;;;;;;5046422;28;20067;-78
2023/01/02 00:24:16;;;;;;;17.63;10.05;;;;;;;;;;5064992;28;20049;-78
2023/01/02 00:26:42;;;;;;;21.08;10.13;;;;;;;;;;5071111;28;20064;-77
2023/01/02 00:29:09;;;;;;;17.30;10.20;;;;;;;;;;5070570;28;20040;-78
2023/01/02 00:31:35;;;;;;;21.55;11.13;;;;;;;;;;5037537;28;20076;-79
2023/01/02 00:34:01;;;;;;;25.48;11.82;;;;;;;;;;5064471;28;20045;-77
2023/01/02 00:36:27;;;;;;;21.80;11.73;;;;;;;;;;5068086;28;20041;-78
2023/01/02 00:38:56;;;;;;;23.25;11.55;;;;;;;;;;5070884;28;20040;-77
2023/01/02 00:41:22;;;;;;;22.55;11.77;;;;;;;;;;5056353;28;20045;-78
2023/01/02 00:43:48;;;;;;;22.00;11.20;;;;;;;;;;5071131;28;20036;-78
2023/01/02 00:46:14;;;;;;;21.42;11.60;;;;;;;;;;5071725;28;20463;-78
2023/01/02 00:48:41;;;;;;;22.58;11.43;;;;;;;;;;5070397;28;20050;-77
2023/01/02 00:51:07;;;;;;;25.10;11.38;;;;;;;;;;5070482;28;20045;-78
2023/01/02 00:53:33;;;;;;;24.40;11.30;;;;;;;;;;5053846;28;20041;-78
2023/01/02 00:55:59;;;;;;;22.80;11.32;;;;;;;;;;5068092;28;20056;-78
2023/01/02 00:58:25;;;;;;;23.83;11.50;;;;;;;;;;5074468;28;20036;-78
2023/01/02 01:00:51;;;;;;;22.38;12.38;;;;;;;;;;5061768;28;20041;-77
2023/01/02 01:03:17;;;;;;;22.95;11.95;;;;;;;;;;5069573;28;20175;-78
2023/01/02 01:05:44;;;;;;;21.42;11.85;;;;;;;;;;5054922;28;20041;-77
2023/01/02 01:08:10;;;;;;;25.33;12.57;;;;;;;;;;5068489;28;20343;-78
2023/01/02 01:10:36;;;;;;;24.13;12.23;;;;;;;;;;5047202;28;20032;-78
2023/01/02 01:13:03;;;;;;;27.23;13.20;;;;;;;;;;5073029;28;20074;-79
2023/01/02 01:15:29;;;;;;;24.95;12.45;;;;;;;;;;5061646;28;20143;-78
2023/01/02 01:17:56;;;;;;;25.27;12.95;;;;;;;;;;5073976;28;20040;-79
2023/01/02 01:20:22;;;;;;;26.73;12.93;;;;;;;;;;5073945;28;20037;-77
2023/01/02 01:22:48;;;;;;;27.27;13.02;;;;;;;;;;5074075;28;20127;-78
2023/01/02 01:25:14;;;;;;;24.13;13.35;;;;;;;;;;5073458;28;20041;-77
2023/01/02 01:27:40;;;;;;;27.20;13.32;;;;;;;;;;5064333;28;20041;-77
2023/01/02 01:30:06;;;;;;;24.15;12.63;;;;;;;;;;5069785;28;20055;-77
2023/01/02 01:32:33;;;;;;;24.02;12.32;;;;;;;;;;5073304;28;20040;-78
2023/01/02 01:34:59;;;;;;;22.52;12.32;;;;;;;;;;5073270;28;20055;-77
2023/01/02 01:37:25;;;;;;;26.67;14.75;;;;;;;;;;5073503;28;20036;-78
2023/01/02 01:39:51;;;;;;;22.98;12.88;;;;;;;;;;5073952;28;20494;-78
2023/01/02 01:42:18;;;;;;;26.65;13.93;;;;;;;;;;5073361;28;20162;-77
2023/01/02 01:44:46;;;;;;;27.27;13.82;;;;;;;;;;5040541;28;20106;-78
2023/01/02 01:47:15;;;;;;;26.88;13.60;;;;;;;;;;5055102;28;20040;-78
2023/01/02 01:49:41;;;;;;;30.40;13.05;;;;;;;;;;5067872;28;20490;-78
2023/01/02 01:52:10;;;;;;;24.45;13.35;;;;;;;;;;5049646;28;20084;-78
2023/01/02 01:54:38;;;;;;;28.88;14.15;;;;;;;;;;5053019;28;20041;-78
2023/01/02 01:57:06;;;;;;;27.23;14.20;;;;;;;;;;5053512;28;20072;-78
2023/01/02 01:59:33;;;;;;;22.38;13.55;;;;;;;;;;5052976;28;20045;-78
2023/01/02 02:01:59;;;;;;;25.83;13.60;;;;;;;;;;5053560;28;20045;-78
2023/01/02 02:04:25;;;;;;;27.85;13.48;;;;;;;;;;5052758;28;20052;-78
2023/01/02 02:06:52;;;;;;;29.25;14.95;;;;;;;;;;5052831;28;20049;-77
2023/01/02 02:09:55;;;;;;;23.65;13.45;;;;;;;;;;5052361;28;20047;-79
2023/01/02 02:12:21;;;;;;;26.52;14.15;;;;;;;;;;4996098;28;20045;-78
2023/01/02 02:14:48;;;;;;;28.60;14.05;;;;;;;;;;5073181;28;20398;-78
2023/01/02 02:17:32;;;;;;;30.27;14.05;;;;;;;;;;5053020;28;20037;-78
2023/01/02 02:20:19;;;;;;;29.80;14.35;;;;;;;;;;5052881;28;20045;-79
2023/01/02 02:23:04;;;;;;;27.48;13.77;;;;;;;;;;5033300;28;20048;-78
2023/01/02 02:25:42;;;;;;;23.65;13.57;;;;;;;;;;5052383;28;20073;-78
2023/01/02 02:28:26;;;;;;;25.50;14.15;;;;;;;;;;5052979;28;20104;-78
2023/01/02 02:30:55;;;;;;;31.02;14.07;;;;;;;;;;5052666;28;20045;-79
2023/01/02 02:33:27;;;;;;;27.92;14.43;;;;;;;;;;5052516;28;20036;-78
2023/01/02 02:35:59;;;;;;;27.60;14.02;;;;;;;;;;5036450;28;20040;-78
2023/01/02 02:38:44;;;;;;;30.58;14.73;;;;;;;;;;5052522;28;20052;-78
2023/01/02 02:41:16;;;;;;;28.80;14.50;;;;;;;;;;5053523;28;20505;-78
2023/01/02 02:43:59;;;;;;;28.90;14.85;;;;;;;;;;5052354;28;20045;-78
2023/01/02 02:46:28;;;;;;;30.48;14.13;;;;;;;;;;5052478;28;20065;-78
2023/01/02 02:48:54;;;;;;;31.42;14.93;;;;;;;;;;5035956;28;20071;-78
2023/01/02 02:51:23;;;;;;;32.33;14.15;;;;;;;;;;5039680;28;20053;-79
2023/01/02 02:53:54;;;;;;;29.00;13.95;;;;;;;;;;5086249;28;20048;-78
2023/01/02 02:56:20;;;;;;;26.52;12.88;;;;;;;;;;5052385;28;20033;-78
2023/01/02 02:58:46;;;;;;;29.17;14.10;;;;;;;;;;5052664;28;20117;-78
2023/01/02 03:01:14;;;;;;;32.97;13.27;;;;;;;;;;5048223;28;20055;-78
2023/01/02 03:03:41;;;;;;;26.33;12.90;;;;;;;;;;5029707;28;20037;-78
2023/01/02 03:06:16;;;;;;;29.08;13.07;;;;;;;;;;5035669;28;20083;-78
2023/01/02 03:09:05;;;;;;;25.33;12.00;;;;;;;;;;5051879;28;20077;-78
2023/01/02 03:11:43;;;;;;;29.45;12.77;;;;;;;;;;5035221;28;20037;-78
2023/01/02 03:14:20;;;;;;;25.98;12.32;;;;;;;;;;5035953;28;20135;-78
2023/01/02 03:16:46;;;;;;;24.02;12.10;;;;;;;;;;5051921;28;20041;-78
2023/01/02 03:19:12;;;;;;;24.42;12.07;;;;;;;;;;5052011;28;20037;-78
2023/01/02 03:21:53;;;;;;;24.75;11.85;;;;;;;;;;5051494;28;20053;-78
2023/01/02 03:24:20;;;;;;;24.45;12.90;;;;;;;;;;5053680;28;20045;-78
2023/01/02 03:26:49;;;;;;;25.83;13.13;;;;;;;;;;5051867;28;20508;-78
2023/01/02 03:29:17;;;;;;;23.17;12.35;;;;;;;;;;5051942;28;20037;-78
2023/01/02 03:31:45;;;;;;;27.33;12.60;;;;;;;;;;5051326;28;20222;-78
2023/01/02 03:34:16;;;;;;;28.65;12.13;;;;;;;;;;5035351;28;20037;-78
2023/01/02 03:36:43;;;;;;;25.63;12.55;;;;;;;;;;5051276;28;20048;-78
2023/01/02 03:39:09;;;;;;;26.08;13.07;;;;;;;;;;5052175;28;20420;-79
2023/01/02 03:41:43;;;;;;;22.80;12.65;;;;;;;;;;5051254;28;20055;-78
2023/01/02 03:44:11;;;;;;;25.77;12.88;;;;;;;;;;5052016;28;20635;-79
2023/01/02 03:46:48;;;;;;;29.55;13.15;;;;;;;;;;5051600;28;20499;-79
2023/01/02 03:49:30;;;;;;;22.83;12.20;;;;;;;;;;5051459;28;20045;-79
2023/01/02 03:51:56;;;;;;;26.75;13.85;;;;;;;;;;5051075;28;20115;-79
2023/01/02 03:54:22;;;;;;;27.77;12.55;;;;;;;;;;5051464;28;20517;-79
2023/01/02 03:57:12;;;;;;;23.63;13.73;;;;;;;;;;5034739;28;20076;-79
2023/01/02 03:59:38;;;;;;;23.88;13.10;;;;;;;;;;5043468;28;20045;-79
2023/01/02 04:02:33;;;;;;;26.27;13.00;;;;;;;;;;5051317;28;20163;-79
2023/01/02 04:05:04;;;;;;;27.77;13.73;;;;;;;;;;4999596;28;20431;-79
2023/01/02 04:07:41;;;;;;;26.90;13.52;;;;;;;;;;5034477;28;20076;-79
2023/01/02 04:10:09;;;;;;;27.50;13.30;;;;;;;;;;5051258;28;20044;-78
2023/01/02 04:12:37;;;;;;;29.27;13.60;;;;;;;;;;5050743;28;20521;-78
2023/01/02 04:15:05;;;;;;;27.50;14.38;;;;;;;;;;5052549;28;20043;-78
2023/01/02 04:17:33;;;;;;;28.58;13.93;;;;;;;;;;5034317;28;20041;-78
2023/01/02 04:20:01;;;;;;;28.70;14.18;;;;;;;;;;5050789;28;20128;-79
2023/01/02 04:22:28;;;;;;;31.85;13.95;;;;;;;;;;5041847;28;20045;-78
2023/01/02 04:24:57;;;;;;;32.45;14.07;;;;;;;;;;5046148;28;20083;-78
2023/01/02 04:27:28;;;;;;;31.10;14.00;;;;;;;;;;5051031;28;20063;-79
2023/01/02 04:29:55;;;;;;;28.65;13.57;;;;;;;;;;5050377;28;20059;-78
2023/01/02 04:32:33;;;;;;;31.10;14.13;;;;;;;;;;5041520;28;20532;-78
2023/01/02 04:35:00;;;;;;;27.50;13.77;;;;;;;;;;5055053;28;20055;-78
2023/01/02 04:37:31;;;;;;;27.92;13.63;;;;;;;;;;5055301;28;20083;-78
2023/01/02 04:40:01;;;;;;;27.83;13.07;;;;;;;;;;5038090;28;20071;-79
2023/01/02 04:42:27;;;;;;;29.90;13.48;;;;;;;;;;5055103;28;20041;-78
2023/01/02 04:44:54;;;;;;;23.88;12.75;;;;;;;;;;5055361;28;20041;-78
2023/01/02 04:47:20;;;;;;;27.17;13.30;;;;;;;;;;5054808;28;20554;-79
2023/01/02 04:49:46;;;;;;;29.25;13.52;;;;;;;;;;5054622;28;20493;-79
2023/01/02 04:52:12;;;;;;;24.42;12.73;;;;;;;;;;5054329;28;20045;-79
2023/01/02 04:54:38;;;;;;;30.13;13.35;;;;;;;;;;5083709;28;20047;-79
2023/01/02 04:57:04;;;;;;;27.33;13.48;;;;;;;;;;5054895;28;20064;-79
2023/01/02 04:59:30;;;;;;;27.25;12.95;;;;;;;;;;5054544;28;20048;-79
2023/01/02 05:01:56;;;;;;;24.77;13.13;;;;;;;;;;5048591;28;20053;-78
2023/01/02 05:04:22;;;;;;;25.05;13.30;;;;;;;;;;5048654;28;20079;-77
2023/01/02 05:06:48;;;;;;;28.85;14.23;;;;;;;;;;5053611;28;20076;-78
2023/01/02 05:09:16;;;;;;;26.17;12.45;;;;;;;;;;5054220;28;20114;-78
2023/01/02 05:11:42;;;;;;;28.08;13.38;;;;;;;;;;5053697;28;20049;-78
2023/01/02 05:14:08;;;;;;;23.88;13.10;;;;;;;;;;5037703;28;20047;-78
2023/01/02 05:16:34;;;;;;;23.65;13.18;;;;;;;;;;5035214;28;20397;-79
2023/01/02 05:19:00;;;;;;;26.88;13.20;;;;;;;;;;5039274;28;20044;-79
2023/01/02 05:24:11;;;;;;;22.95;12.65;;;;;;;;;;5054674;28;20407;-79
2023/01/02 05:26:37;;;;;;;27.10;13.90;;;;;;;;;;5054151;28;20056;-78
2023/01/02 05:29:03;;;;;;;27.45;14.80;;;;;;;;;;5037230;28;20049;-79
2023/01/02 05:31:29;;;;;;;28.20;13.65;;;;;;;;;;5055309;28;20406;-78
2023/01/02 05:33:56;;;;;;;23.02;13.27;;;;;;;;;;5036896;28;20065;-78
2023/01/02 05:36:23;;;;;;;26.38;15.05;;;;;;;;;;5053890;28;20075;-78
2023/01/02 05:38:50;;;;;;;26.23;13.98;;;;;;;;;;5053508;28;20541;-77
2023/01/02 05:41:16;;;;;;;23.73;13.60;;;;;;;;;;5053734;28;20063;-77
2023/01/02 05:43:42;;;;;;;30.35;15.57;;;;;;;;;;5053225;28;20045;-78
2023/01/02 05:46:08;;;;;;;30.60;15.43;;;;;;;;;;5053629;28;20052;-78
2023/01/02 05:48:34;;;;;;;29.55;15.65;;;;;;;;;;5053422;28;20095;-78
2023/01/02 05:51:01;;;;;;;31.00;15.35;;;;;;;;;;5053091;28;20045;-77
2023/01/02 05:53:28;;;;;;;34.28;16.02;;;;;;;;;;5055145;28;20053;-77
2023/01/02 05:55:54;;;;;;;29.02;15.50;;;;;;;;;;5058841;28;20397;-77
2023/01/02 05:58:20;;;;;;;32.13;16.48;;;;;;;;;;5053663;28;20029;-77
2023/01/02 06:00:46;;;;;;;35.72;16.80;;;;;;;;;;5066054;28;20041;-77
2023/01/02 06:03:12;;;;;;;35.13;17.63;;;;;;;;;;5073186;28;20036;-77
2023/01/02 06:05:38;;;;;;;34.25;15.10;;;;;;;;;;5073272;28;20037;-77
2023/01/02 06:08:04;;;;;;;40.50;16.65;;;;;;;;;;5072746;28;20139;-77
2023/01/02 06:10:30;;;;;;;34.75;16.85;;;;;;;;;;5073092;28;20052;-78
2023/01/02 06:12:56;;;;;;;30.92;16.35;;;;;;;;;;5072670;28;20047;-79
2023/01/02 06:15:22;;;;;;;34.08;16.48;;;;;;;;;;5073274;28;20119;-78
2023/01/02 06:17:48;;;;;;;27.10;14.65;;;;;;;;;;5072667;28;20045;-78
2023/01/02 06:20:14;;;;;;;26.55;15.43;;;;;;;;;;5073182;28;20558;-78
2023/01/02 06:22:40;;;;;;;22.05;13.70;;;;;;;;;;5072941;28;20036;-78
2023/01/02 06:25:07;;;;;;;18.60;11.00;;;;;;;;;;5069427;28;20451;-78
2023/01/02 06:27:33;;;;;;;12.55;7.95;;;;;;;;;;5062553;28;20431;-77
2023/01/02 06:29:59;;;;;;;9.50;6.60;;;;;;;;;;5072764;28;20416;-78
2023/01/02 06:32:25;;;;;;;6.95;4.70;;;;;;;;;;5072664;28;20082;-78
2023/01/02 06:34:51;;;;;;;5.53;3.83;;;;;;;;;;5072164;28;20124;-78
2023/01/02 06:37:17;;;;;;;6.35;4.43;;;;;;;;;;5073259;28;20032;-78
2023/01/02 06:39:43;;;;;;;6.50;4.85;;;;;;;;;;5072643;28;20185;-77
2023/01/02 06:42:09;;;;;;;7.55;5.10;;;;;;;;;;5071934;28;20132;-78
2023/01/02 06:44:35;;;;;;;9.48;6.30;;;;;;;;;;5072427;28;20036;-79
2023/01/02 06:47:01;;;;;;;11.20;6.65;;;;;;;;;;5072250;28;20048;-78
2023/01/02 06:49:27;;;;;;;11.20;7.72;;;;;;;;;;5072835;28;20032;-78
2023/01/02 06:51:53;;;;;;;13.88;8.70;;;;;;;;;;5055147;28;20128;-78
2023/01/02 06:54:19;;;;;;;14.05;8.32;;;;;;;;;;5053821;28;20513;-78
2023/01/02 06:56:45;;;;;;;15.07;8.88;;;;;;;;;;5052616;28;20588;-78
2023/01/02 06:59:11;;;;;;;19.27;9.63;;;;;;;;;;5052368;28;20494;-78
2023/01/02 07:01:37;;;;;;;16.95;8.65;;;;;;;;;;5035997;28;20037;-78
2023/01/02 07:04:04;;;;;;;16.80;9.48;;;;;;;;;;5051783;28;20047;-78
2023/01/02 07:06:30;;;;;;;19.38;8.07;;;;;;;;;;5052473;28;20037;-78
2023/01/02 07:08:56;;;;;;;19.70;7.72;;;;;;;;;;5052036;28;20045;-78
2023/01/02 07:11:23;;;;;;;19.02;7.20;;;;;;;;;;5038041;28;20564;-78
2023/01/02 07:13:50;;;;;;;16.77;6.68;;;;;;;;;;5035543;28;20040;-79
2023/01/02 07:16:17;;;;;;;15.30;5.88;;;;;;;;;;5051898;28;20501;-78
2023/01/02 07:18:43;;;;;;;10.73;4.45;;;;;;;;;;5051975;28;20041;-78
2023/01/02 07:21:09;;;;;;;10.50;4.50;;;;;;;;;;5051527;28;20045;-78
2023/01/02 07:23:35;;;;;;;10.18;4.20;;;;;;;;;;5052078;28;20111;-78
2023/01/02 07:26:03;;;;;;;10.45;3.80;;;;;;;;;;5051450;28;20045;-78
2023/01/02 07:28:29;;;;;;;9.50;3.72;;;;;;;;;;5051777;28;20048;-78
2023/01/02 07:30:56;;;;;;;10.52;3.58;;;;;;;;;;5051501;28;20433;-78
2023/01/02 07:33:22;;;;;;;10.30;3.67;;;;;;;;;;5051534;28;20048;-78
2023/01/02 07:35:49;;;;;;;9.32;3.17;;;;;;;;;;5051714;28;20227;-78
2023/01/02 07:38:15;;;;;;;6.90;3.00;;;;;;;;;;5051245;28;20064;-78
2023/01/02 07:40:41;;;;;;;7.65;2.50;;;;;;;;;;5051444;28;20037;-78
2023/01/02 07:43:07;;;;;;;8.60;3.10;;;;;;;;;;5051460;28;20461;-78
2023/01/02 07:45:33;;;;;;;5.82;2.33;;;;;;;;;;5051808;28;20441;-78
2023/01/02 07:48:00;;;;;;;6.95;2.35;;;;;;;;;;5051267;28;20107;-78
2023/01/02 07:50:26;;;;;;;6.30;1.90;;;;;;;;;;5034587;28;20051;-78
2023/01/02 07:52:52;;;;;;;5.82;2.05;;;;;;;;;;5034723;28;20052;-78
2023/01/02 07:55:18;;;;;;;5.90;2.17;;;;;;;;;;5034664;28;20553;-79
2023/01/02 07:57:47;;;;;;;5.30;2.13;;;;;;;;;;5051127;28;20048;-78
2023/01/02 08:00:13;;;;;;;5.80;2.10;;;;;;;;;;5051202;28;20055;-78
2023/01/02 08:02:39;;;;;;;6.80;2.30;;;;;;;;;;5052711;28;20041;-78
2023/01/02 08:05:05;;;;;;;6.47;2.28;;;;;;;;;;5050378;28;20045;-78
2023/01/02 08:07:31;;;;;;;7.75;2.67;;;;;;;;;;5034327;28;20045;-78
2023/01/02 08:09:57;;;;;;;8.52;2.58;;;;;;;;;;5051020;28;20037;-78
2023/01/02 08:12:23;;;;;;;5.53;2.58;;;;;;;;;;5050694;28;20118;-78
2023/01/02 08:14:49;;;;;;;5.47;2.30;;;;;;;;;;5051215;28;20045;-79
2023/01/02 08:17:15;;;;;;;5.28;2.08;;;;;;;;;;5050996;28;20535;-78
2023/01/02 08:19:42;;;;;;;5.15;2.20;;;;;;;;;;5051180;28;20397;-78
2023/01/02 08:22:08;;;;;;;4.68;2.10;;;;;;;;;;5051141;28;20459;-78
2023/01/02 08:24:34;;;;;;;5.88;2.15;;;;;;;;;;5050924;28;20052;-78
2023/01/02 08:27:00;;;;;;;6.43;2.65;;;;;;;;;;5050962;28;20508;-78
2023/01/02 08:29:26;;;;;;;6.30;2.50;;;;;;;;;;5052248;28;20036;-78
2023/01/02 08:31:52;;;;;;;5.90;2.15;;;;;;;;;;5017859;28;20052;-78
2023/01/02 08:34:18;;;;;;;6.82;2.45;;;;;;;;;;5050460;28;20045;-78
2023/01/02 08:36:44;;;;;;;6.28;2.35;;;;;;;;;;5052095;28;20044;-78
2023/01/02 08:39:10;;;;;;;8.48;2.50;;;;;;;;;;5050427;28;20037;-77
2023/01/02 08:41:37;;;;;;;8.02;2.30;;;;;;;;;;5050654;28;20073;-77
2023/01/02 08:44:04;;;;;;;6.53;2.15;;;;;;;;;;5045239;28;20052;-77
2023/01/02 08:46:30;;;;;;;6.72;2.50;;;;;;;;;;5041929;28;20048;-77
2023/01/02 08:49:00;;;;;;;7.65;2.00;;;;;;;;;;5051005;28;20527;-78
2023/01/02 08:51:27;;;;;;;4.65;1.90;;;;;;;;;;5050006;28;20045;-77
2023/01/02 08:53:53;;;;;;;6.63;1.90;;;;;;;;;;5050616;28;20048;-78
2023/01/02 08:56:24;;;;;;;5.53;1.85;;;;;;;;;;5064853;28;20044;-78
2023/01/02 08:59:00;;;;;;;7.93;2.05;;;;;;;;;;5050866;28;20119;-78
2023/01/02 09:01:27;;;;;;;4.70;1.92;;;;;;;;;;5050588;28;20478;-78
2023/01/02 09:03:54;;;;;;;5.50;2.30;;;;;;;;;;5050555;28;20067;-78
2023/01/02 09:06:20;;;;;;;5.65;2.17;;;;;;;;;;5050450;28;20160;-78
2023/01/02 09:08:46;;;;;;;6.07;2.33;;;;;;;;;;5050633;28;20094;-78
2023/01/02 09:11:17;;;;;;;6.07;2.42;;;;;;;;;;5050462;28;20048;-79
2023/01/02 09:13:46;;;;;;;5.97;2.20;;;;;;;;;;5051684;28;20044;-78
2023/01/02 09:16:12;;;;;;;6.00;2.42;;;;;;;;;;5036774;28;20069;-79
2023/01/02 09:18:38;;;;;;;7.55;2.20;;;;;;;;;;5053889;28;20041;-78
2023/01/02 09:21:05;;;;;;;6.18;2.05;;;;;;;;;;5037560;28;20052;-78
2023/01/02 09:23:31;;;;;;;6.25;1.98;;;;;;;;;;5053787;28;20032;-78
2023/01/02 09:26:02;;;;;;;9.13;2.30;;;;;;;;;;5053969;28;20040;-79
2023/01/02 09:28:29;;;;;;;6.15;2.08;;;;;;;;;;5053736;28;20118;-78
2023/01/02 09:30:55;;;;;;;7.97;2.17;;;;;;;;;;5054155;28;20502;-79
2023/01/02 09:33:21;;;;;;;6.55;2.30;;;;;;;;;;5053468;28;20071;-79
2023/01/02 09:35:47;;;;;;;6.43;1.92;;;;;;;;;;5053915;28;20037;-78
2023/01/02 09:38:13;;;;;;;7.55;2.17;;;;;;;;;;5053642;28;20095;-78
2023/01/02 09:40:45;;;;;;;6.32;2.10;;;;;;;;;;5053620;28;20041;-79
2023/01/02 09:43:12;;;;;;;8.10;1.83;;;;;;;;;;5053444;28;20037;-78
2023/01/02 09:45:40;;;;;;;4.15;1.90;;;;;;;;;;5053569;28;20123;-78
2023/01/02 09:48:13;;;;;;;3.70;1.65;;;;;;;;;;5053768;28;20083;-77
2023/01/02 09:50:39;;;;;;;3.63;1.83;;;;;;;;;;5053560;28;20080;-78
2023/01/02 09:53:05;;;;;;;7.82;2.08;;;;;;;;;;5036921;28;20498;-79
2023/01/02 09:55:37;;;;;;;6.65;2.05;;;;;;;;;;5053267;28;20414;-78
2023/01/02 09:58:10;;;;;;;6.25;2.10;;;;;;;;;;5053747;28;20496;-78
2023/01/02 10:00:37;;;;;;;5.57;2.25;;;;;;;;;;5053111;28;20048;-79
2023/01/02 10:03:10;;;;;;;6.45;2.63;;;;;;;;;;5053653;28;20041;-78
2023/01/02 10:05:48;;;;;;;6.50;2.92;;;;;;;;;;5054593;28;20076;-79
2023/01/02 10:08:26;;;;;;;6.93;2.72;;;;;;;;;;5036373;28;20041;-78
2023/01/02 10:11:03;;;;;;;6.85;3.00;;;;;;;;;;5053236;28;20044;-78
2023/01/02 10:13:34;;;;;;;8.32;2.88;;;;;;;;;;5052793;28;20037;-78
2023/01/02 10:16:02;;;;;;;6.70;2.75;;;;;;;;;;5052964;28;20052;-78
2023/01/02 10:18:43;;;;;;;8.10;3.15;;;;;;;;;;5052631;28;20112;-78
2023/01/02 10:21:13;;;;;;;9.93;3.22;;;;;;;;;;5053772;28;20622;-78
2023/01/02 10:23:42;;;;;;;10.50;3.80;;;;;;;;;;5052682;28;20098;-78
2023/01/02 10:26:19;;;;;;;7.80;3.53;;;;;;;;;;5052938;28;20069;-78
2023/01/02 10:28:45;;;;;;;9.88;3.70;;;;;;;;;;5052285;28;20410;-78
2023/01/02 10:31:18;;;;;;;9.23;3.83;;;;;;;;;;5053021;28;20501;-78
2023/01/02 10:33:52;;;;;;;8.45;3.53;;;;;;;;;;5053006;28;20080;-78
2023/01/02 10:36:22;;;;;;;9.23;3.20;;;;;;;;;;5052851;28;20512;-79
2023/01/02 10:38:48;;;;;;;9.95;3.20;;;;;;;;;;5053326;28;20029;-78
2023/01/02 10:41:14;;;;;;;7.22;3.17;;;;;;;;;;5052637;28;20041;-78
2023/01/02 10:43:40;;;;;;;9.88;3.40;;;;;;;;;;5052214;28;20071;-78
2023/01/02 10:46:06;;;;;;;7.13;2.83;;;;;;;;;;5028351;28;20033;-78
2023/01/02 10:48:34;;;;;;;8.65;2.88;;;;;;;;;;5047424;28;20040;-78
2023/01/02 10:51:02;;;;;;;8.10;2.83;;;;;;;;;;5032864;28;20525;-78
2023/01/02 10:53:28;;;;;;;7.60;2.45;;;;;;;;;;5031858;28;20202;-78
2023/01/02 10:55:54;;;;;;;8.05;2.40;;;;;;;;;;5051110;28;20494;-78
2023/01/02 10:58:27;;;;;;;10.27;2.40;;;;;;;;;;5052010;28;20108;-78
2023/01/02 11:01:12;;;;;;;9.45;2.55;;;;;;;;;;5052671;28;20041;-79
2023/01/02 11:03:39;;;;;;;9.70;2.15;;;;;;;;;;5040709;28;20041;-78
2023/01/02 11:06:17;;;;;;;8.65;1.92;;;;;;;;;;5052526;28;20490;-79
2023/01/02 11:08:43;;;;;;;8.80;2.20;;;;;;;;;;5051852;28;20045;-77
2023/01/02 11:11:13;;;;;;;6.28;2.20;;;;;;;;;;5052262;28;20090;-78
2023/01/02 11:13:56;;;;;;;8.60;1.45;;;;;;;;;;5035392;28;20041;-78
2023/01/02 11:16:25;;;;;;;10.43;1.58;;;;;;;;;;5037885;28;20486;-78
2023/01/02 11:18:57;;;;;;;7.47;1.65;;;;;;;;;;5051958;28;20041;-78
2023/01/02 11:21:26;;;;;;;5.55;1.30;;;;;;;;;;5051903;28;20076;-78
2023/01/02 11:23:56;;;;;;;8.82;1.70;;;;;;;;;;5052149;28;20134;-78
2023/01/02 11:26:24;;;;;;;6.38;1.10;;;;;;;;;;5051713;28;20041;-78
2023/01/02 11:28:51;;;;;;;7.43;1.08;;;;;;;;;;5051639;28;20045;-78
2023/01/02 11:31:17;;;;;;;7.63;1.23;;;;;;;;;;5051745;28;20056;-78
2023/01/02 11:33:44;;;;;;;6.18;1.25;;;;;;;;;;5047215;28;20049;-78
2023/01/02 11:36:10;;;;;;;8.20;1.27;;;;;;;;;;5042226;28;20084;-77
2023/01/02 11:38:59;;;;;;;6.25;1.20;;;;;;;;;;5051278;28;20048;-78
2023/01/02 11:44:30;;;;;;;7.18;1.27;;;;;;;;;;5039813;28;20048;-77
2023/01/02 11:46:57;;;;;;;8.20;1.70;;;;;;;;;;5035451;28;20433;-77
2023/01/02 11:49:25;;;;;;;8.35;1.30;;;;;;;;;;5051489;28;20041;-77
2023/01/02 11:51:56;;;;;;;5.28;1.05;;;;;;;;;;5051640;28;20045;-78
2023/01/02 11:54:24;;;;;;;9.75;1.77;;;;;;;;;;5051379;28;20045;-77
2023/01/02 11:56:51;;;;;;;9.00;1.50;;;;;;;;;;5084962;28;20417;-78
2023/01/02 11:59:17;;;;;;;7.13;1.40;;;;;;;;;;5051436;28;20037;-78
2023/01/02 12:01:43;;;;;;;8.48;1.30;;;;;;;;;;5051187;28;20124;-77
2023/01/02 12:04:10;;;;;;;6.10;1.13;;;;;;;;;;5053251;28;20103;-79
2023/01/02 12:06:54;;;;;;;8.43;1.33;;;;;;;;;;5051466;28;20505;-77
2023/01/02 12:09:30;;;;;;;10.13;1.48;;;;;;;;;;5051414;28;20047;-77
2023/01/02 12:12:02;;;;;;;9.40;1.33;;;;;;;;;;5051880;28;20545;-77
2023/01/02 12:14:58;;;;;;;9.93;1.80;;;;;;;;;;5052945;28;20560;-77
2023/01/02 12:17:34;;;;;;;6.72;1.45;;;;;;;;;;5032291;28;20049;-78
2023/01/02 12:20:00;;;;;;;9.40;1.58;;;;;;;;;;5051181;28;20120;-77
2023/01/02 12:22:45;;;;;;;8.43;2.20;;;;;;;;;;5051468;28;20389;-77
2023/01/02 12:25:23;;;;;;;10.68;2.60;;;;;;;;;;5034568;28;20527;-78
2023/01/02 12:28:08;;;;;;;14.35;3.13;;;;;;;;;;5034187;28;20052;-78
2023/01/02 12:30:36;;;;;;;11.88;3.22;;;;;;;;;;5050890;28;20045;-77
2023/01/02 12:33:21;;;;;;;15.27;3.67;;;;;;;;;;5050966;28;20468;-77
2023/01/02 12:35:47;;;;;;;15.05;3.50;;;;;;;;;;5037626;28;20036;-78
2023/01/02 12:38:33;;;;;;;12.35;2.88;;;;;;;;;;5051084;28;20045;-77
2023/01/02 12:41:05;;;;;;;15.65;2.95;;;;;;;;;;5002958;28;20045;-78
2023/01/02 12:43:50;;;;;;;13.82;3.15;;;;;;;;;;5034604;28;20084;-78
2023/01/02 12:46:28;;;;;;;13.20;3.22;;;;;;;;;;5052347;28;20063;-78
2023/01/02 12:49:00;;;;;;;14.68;3.08;;;;;;;;;;5051055;28;20494;-78
2023/01/02 12:51:31;;;;;;;14.63;2.90;;;;;;;;;;5051042;28;20051;-78
2023/01/02 12:54:00;;;;;;;12.82;2.70;;;;;;;;;;5054567;28;20049;-78
2023/01/02 12:56:42;;;;;;;14.50;2.50;;;;;;;;;;5038817;28;20484;-78
2023/01/02 12:59:27;;;;;;;14.15;2.58;;;;;;;;;;5038370;28;20037;-78
2023/01/02 13:01:53;;;;;;;10.07;1.63;;;;;;;;;;5042189;28;20040;-78
2023/01/02 13:04:34;;;;;;;8.73;1.98;;;;;;;;;;5054521;28;20071;-78
2023/01/02 13:07:16;;;;;;;10.70;2.38;;;;;;;;;;5042723;28;20041;-78
2023/01/02 13:09:43;;;;;;;10.18;1.80;;;;;;;;;;5037492;28;20041;-78
2023/01/02 13:12:14;;;;;;;13.45;2.40;;;;;;;;;;5055946;28;20053;-77
2023/01/02 13:14:57;;;;;;;11.00;1.73;;;;;;;;;;5055496;28;20486;-78
2023/01/02 13:17:42;;;;;;;15.63;1.90;;;;;;;;;;5054455;28;20041;-77
2023/01/02 13:20:21;;;;;;;15.00;2.10;;;;;;;;;;5053902;28;20044;-77
2023/01/02 13:22:50;;;;;;;12.02;1.83;;;;;;;;;;5054122;28;20048;-78
2023/01/02 13:25:18;;;;;;;8.20;1.80;;;;;;;;;;5054036;28;20037;-78
2023/01/02 13:27:44;;;;;;;23.05;3.13;;;;;;;;;;5087597;28;20052;-78
2023/01/02 13:30:29;;;;;;;8.93;2.35;;;;;;;;;;5054196;28;20045;-78
2023/01/02 13:32:56;;;;;;;12.18;2.00;;;;;;;;;;5053684;28;20037;-78
2023/01/02 13:35:22;;;;;;;12.13;1.63;;;;;;;;;;5037397;28;20037;-78
2023/01/02 13:37:50;;;;;;;11.02;1.95;;;;;;;;;;5054128;28;20040;-78
2023/01/02 13:40:24;;;;;;;13.63;2.13;;;;;;;;;;5055464;28;20033;-78
2023/01/02 13:42:58;;;;;;;15.70;2.00;;;;;;;;;;5053476;28;20048;-78
2023/01/02 13:45:29;;;;;;;10.40;2.33;;;;;;;;;;5022356;28;20041;-78
2023/01/02 13:47:57;;;;;;;13.77;2.05;;;;;;;;;;5054977;28;20083;-78
2023/01/02 13:50:31;;;;;;;14.77;1.83;;;;;;;;;;5053795;28;20432;-78
2023/01/02 13:53:05;;;;;;;10.10;1.60;;;;;;;;;;5053192;28;20057;-78
2023/01/02 13:55:40;;;;;;;15.45;1.92;;;;;;;;;;5054056;28;20093;-78
2023/01/02 13:58:14;;;;;;;10.40;1.70;;;;;;;;;;5053984;28;20051;-78
2023/01/02 14:00:40;;;;;;;8.80;1.95;;;;;;;;;;5053531;28;20051;-78
2023/01/02 14:03:17;;;;;;;11.02;1.70;;;;;;;;;;5052857;28;20040;-78
2023/01/02 14:05:55;;;;;;;10.73;2.28;;;;;;;;;;5053408;28;20081;-78
2023/01/02 14:08:26;;;;;;;14.98;2.42;;;;;;;;;;5053552;28;20041;-78
2023/01/02 14:11:12;;;;;;;10.15;2.08;;;;;;;;;;5053119;28;20078;-77
2023/01/02 14:13:43;;;;;;;8.10;1.45;;;;;;;;;;5052993;28;20574;-78
2023/01/02 14:16:15;;;;;;;11.70;2.00;;;;;;;;;;5036650;28;20095;-78
2023/01/02 14:18:41;;;;;;;11.02;1.85;;;;;;;;;;5053487;28;20041;-77
2023/01/02 14:21:07;;;;;;;13.90;1.90;;;;;;;;;;5054123;28;20033;-77
2023/01/02 14:23:40;;;;;;;11.68;2.03;;;;;;;;;;5053122;28;20091;-77
2023/01/02 14:26:06;;;;;;;12.35;2.17;;;;;;;;;;5052736;28;20143;-78
2023/01/02 14:28:36;;;;;;;14.18;2.45;;;;;;;;;;5053371;28;20393;-77
2023/01/02 14:31:14;;;;;;;6.75;1.70;;;;;;;;;;5036503;28;20048;-77
2023/01/02 14:33:40;;;;;;;11.35;2.05;;;;;;;;;;5053278;28;20060;-78
2023/01/02 14:36:08;;;;;;;17.08;2.42;;;;;;;;;;5053848;28;20037;-78
2023/01/02 14:38:40;;;;;;;10.23;1.98;;;;;;;;;;5052981;28;20033;-77
2023/01/02 14:43:56;;;;;;;10.43;2.17;;;;;;;;;;5038340;28;20037;-78
2023/01/02 14:46:24;;;;;;;11.63;2.00;;;;;;;;;;5054557;28;20098;-78
2023/01/02 14:49:05;;;;;;;14.35;1.95;;;;;;;;;;5036035;28;20044;-77
2023/01/02 14:51:34;;;;;;;11.55;2.08;;;;;;;;;;5041992;28;20049;-77